createdAt,value
2023-05-19T00:04:31.762Z,100210.63
2023-05-19T00:09:34.977Z,100211.00
2023-05-19T00:14:38.017Z,100201.84
2023-05-19T00:19:42.051Z,100204.69
2023-05-19T00:24:44.688Z,100210.06
2023-05-19T00:29:47.281Z,100209.78
2023-05-19T00:34:51.289Z,100213.28
2023-05-19T00:39:53.967Z,100214.69
2023-05-19T00:44:56.730Z,100214.88
2023-05-19T00:50:00.820Z,100209.50
2023-05-19T00:55:03.517Z,100203.31
2023-05-19T01:00:08.043Z,100205.50
2023-05-19T01:05:12.277Z,100208.56
2023-05-19T01:10:15.117Z,100210.25
2023-05-19T01:15:17.898Z,100203.19
2023-05-19T01:20:25.902Z,100199.56
2023-05-19T01:25:55.766Z,100205.97
2023-05-19T01:31:01.232Z,100193.06
2023-05-19T01:36:05.038Z,100187.72
2023-05-19T01:41:07.980Z,100187.25
2023-05-19T01:46:12.771Z,100180.94
2023-05-19T01:51:15.497Z,100189.66
2023-05-19T01:56:22.927Z,100185.31
2023-05-19T02:01:34.007Z,100192.88
2023-05-19T02:06:42.528Z,100190.41
2023-05-19T02:11:53.799Z,100199.16
2023-05-19T02:16:59.228Z,100204.22
2023-05-19T02:22:01.970Z,100193.88
2023-05-19T02:27:04.896Z,100195.06
2023-05-19T02:32:09.415Z,100199.31
2023-05-19T02:37:12.417Z,100196.44
2023-05-19T02:42:17.683Z,100195.25
2023-05-19T02:47:21.884Z,100197.09
2023-05-19T02:52:24.552Z,100193.56
2023-05-19T02:57:27.612Z,100184.88
2023-05-19T03:02:33.296Z,100182.19
2023-05-19T03:07:36.137Z,100182.56
2023-05-19T03:12:38.921Z,100184.41
2023-05-19T03:17:43.222Z,100186.63
2023-05-19T03:22:45.994Z,100179.94
2023-05-19T03:27:48.837Z,100187.31
2023-05-19T03:32:53.192Z,100189.53
2023-05-19T03:37:55.993Z,100195.25
2023-05-19T03:43:00.934Z,100192.94
2023-05-19T03:48:05.950Z,100194.13
2023-05-19T03:53:30.234Z,100191.13
2023-05-19T03:58:33.028Z,100185.47
2023-05-19T04:03:37.188Z,100183.09
2023-05-19T04:08:40.488Z,100180.28
2023-05-19T04:13:44.500Z,100181.94
2023-05-19T04:18:49.687Z,100188.16
2023-05-19T04:23:55.747Z,100184.44
2023-05-19T04:28:58.872Z,100187.50
2023-05-19T04:34:02.971Z,100182.13
2023-05-19T04:39:07.911Z,100184.81
2023-05-19T04:44:10.972Z,100179.50
2023-05-19T04:49:15.330Z,100181.72
2023-05-19T04:54:17.989Z,100180.44
2023-05-19T04:59:20.703Z,100185.22
2023-05-19T05:04:25.888Z,100185.06
2023-05-19T05:09:28.570Z,100183.88
2023-05-19T05:14:34.384Z,100183.72
2023-05-19T05:19:39.265Z,100188.78
2023-05-19T05:24:43.150Z,100187.56
2023-05-19T05:29:45.997Z,100181.38
2023-05-19T05:34:50.861Z,100188.59
2023-05-19T05:39:53.661Z,100194.63
2023-05-19T05:44:56.388Z,100188.84
2023-05-19T05:50:01.220Z,100179.34
2023-05-19T05:55:06.130Z,100180.19
2023-05-19T06:00:15.411Z,100181.25
2023-05-19T06:05:19.541Z,100186.06
2023-05-19T06:10:24.086Z,100178.63
2023-05-19T06:15:27.328Z,100180.09
2023-05-19T06:20:39.015Z,100179.53
2023-05-19T06:25:42.130Z,100174.38
2023-05-19T06:30:45.524Z,100167.78
2023-05-19T06:36:24.664Z,100162.19
2023-05-19T06:41:30.187Z,100166.34
2023-05-19T06:46:33.096Z,100171.31
2023-05-19T06:51:37.343Z,100176.13
2023-05-19T06:56:40.292Z,100167.47
2023-05-19T07:01:43.206Z,100166.88
2023-05-19T07:06:47.740Z,100168.13
2023-05-19T07:11:50.816Z,100173.97
2023-05-19T07:16:53.585Z,100166.97
2023-05-19T07:21:59.258Z,100157.44
2023-05-19T07:27:01.975Z,100161.03
2023-05-19T07:32:05.176Z,100164.53
2023-05-19T07:37:09.179Z,100159.59
2023-05-19T07:42:11.805Z,100164.78
2023-05-19T07:47:14.509Z,100166.47
2023-05-19T07:52:18.747Z,100156.28
2023-05-19T07:57:21.382Z,100153.59
2023-05-19T08:02:24.120Z,100155.91
2023-05-19T08:07:28.139Z,100144.09
2023-05-19T08:12:30.804Z,100139.53
2023-05-19T08:17:33.469Z,100136.66
2023-05-19T08:22:37.673Z,100137.25
2023-05-19T08:27:40.529Z,100137.06
2023-05-19T08:32:43.366Z,100136.88
2023-05-19T08:37:47.566Z,100129.38
2023-05-19T08:42:50.545Z,100126.50
2023-05-19T08:47:53.473Z,100121.94
2023-05-19T08:53:03.022Z,100110.75
2023-05-19T08:58:05.940Z,100118.00
2023-05-19T09:03:18.046Z,100109.88
2023-05-19T09:08:27.630Z,100106.59
2023-05-19T09:13:30.365Z,100108.66
2023-05-19T09:18:33.096Z,100109.06
2023-05-19T09:23:37.094Z,100094.53
2023-05-19T09:28:41.298Z,100089.16
2023-05-19T09:33:45.998Z,100099.31
2023-05-19T09:38:50.290Z,100079.03
2023-05-19T09:43:55.792Z,100075.94
2023-05-19T09:48:58.578Z,100081.50
2023-05-19T09:54:02.633Z,100071.53
2023-05-19T09:59:05.333Z,100072.41
2023-05-19T10:04:08.129Z,100071.34
2023-05-19T10:09:12.305Z,100071.53
2023-05-19T10:14:15.197Z,100065.75
2023-05-19T10:19:17.876Z,100074.25
2023-05-19T10:24:22.301Z,100070.09
2023-05-19T10:29:29.372Z,100054.13
2023-05-19T10:35:01.961Z,100057.25
2023-05-19T10:40:12.418Z,100052.91
2023-05-19T10:45:18.706Z,100055.19
2023-05-19T10:50:21.764Z,100046.69
2023-05-19T10:55:48.085Z,100041.09
2023-05-19T11:01:01.377Z,100042.97
2023-05-19T11:06:18.505Z,100036.53
2023-05-19T11:11:23.403Z,100033.84
2023-05-19T11:16:30.360Z,100034.47
2023-05-19T11:21:43.532Z,100029.09
2023-05-19T11:26:47.550Z,100023.28
2023-05-19T11:31:50.486Z,100028.66
2023-05-19T11:36:53.847Z,100017.88
2023-05-19T11:41:57.843Z,100015.00
2023-05-19T11:47:01.129Z,100013.13
2023-05-19T11:52:04.752Z,100012.50
2023-05-19T11:57:09.472Z,100007.13
2023-05-19T12:02:18.312Z,100000.44
2023-05-19T12:07:24.110Z,99995.47
2023-05-19T12:12:31.077Z,99994.66
2023-05-19T12:17:33.787Z,99988.03
2023-05-19T12:22:36.509Z,99991.75
2023-05-19T12:27:40.541Z,99992.19
2023-05-19T12:32:43.966Z,99980.34
2023-05-19T12:37:49.047Z,99975.59
2023-05-19T12:42:58.083Z,99964.56
2023-05-19T12:48:04.347Z,99966.03
2023-05-19T12:53:09.948Z,99969.34
2023-05-19T12:58:14.228Z,99964.59
2023-05-19T13:03:18.020Z,99960.84
2023-05-19T13:08:23.850Z,99962.28
2023-05-19T13:13:27.898Z,99958.56
2023-05-19T13:18:32.429Z,99963.53
2023-05-19T13:23:35.713Z,99963.31
2023-05-19T13:28:39.757Z,99961.25
2023-05-19T13:33:42.408Z,99957.28
2023-05-19T13:38:45.139Z,99951.06
2023-05-19T13:43:49.131Z,99934.47
2023-05-19T13:48:51.780Z,99939.84
2023-05-19T13:53:54.453Z,99934.06
2023-05-19T13:58:58.453Z,99934.06
2023-05-19T14:04:01.494Z,99935.75
2023-05-19T14:09:04.346Z,99936.56
2023-05-19T14:14:09.418Z,99927.22
2023-05-19T14:19:14.488Z,99918.06
2023-05-19T14:24:17.575Z,99922.44
2023-05-19T14:29:21.537Z,99920.38
2023-05-19T14:34:24.183Z,99928.47
2023-05-19T14:39:26.932Z,99918.28
2023-05-19T14:44:33.894Z,99908.09
2023-05-19T14:49:36.532Z,99917.88
2023-05-19T14:54:39.338Z,99905.41
2023-05-19T14:59:43.293Z,99911.41
2023-05-19T15:04:46.178Z,99911.41
2023-05-19T15:09:48.978Z,99907.66
2023-05-19T15:14:53.080Z,99905.59
2023-05-19T15:19:55.719Z,99903.72
2023-05-19T15:24:58.379Z,99903.53
2023-05-19T15:30:02.376Z,99904.34
2023-05-19T15:35:05.518Z,99897.06
2023-05-19T15:40:09.352Z,99892.94
2023-05-19T15:45:13.358Z,99879.44
2023-05-19T15:50:16.869Z,99891.91
2023-05-19T15:55:19.891Z,99890.03
2023-05-19T16:00:24.291Z,99879.00
2023-05-19T16:05:26.974Z,99877.97
2023-05-19T16:10:29.639Z,99869.88
2023-05-19T16:15:33.627Z,99869.66
2023-05-19T16:20:36.337Z,99866.94
2023-05-19T16:25:38.979Z,99853.44
2023-05-19T16:30:43.534Z,99862.41
2023-05-19T16:35:46.273Z,99866.75
2023-05-19T16:40:48.949Z,99863.84
2023-05-19T16:45:53.016Z,99847.66
2023-05-19T16:50:55.762Z,99853.63
2023-05-19T16:55:59.187Z,99856.72
2023-05-19T17:01:03.889Z,99856.06
2023-05-19T17:06:06.639Z,99845.06
2023-05-19T17:11:09.432Z,99850.47
2023-05-19T17:16:13.509Z,99854.16
2023-05-19T17:21:17.432Z,99849.97
2023-05-19T17:26:20.144Z,99848.34
2023-05-19T17:31:24.156Z,99849.97
2023-05-19T17:36:27.082Z,99854.34
2023-05-19T17:41:29.781Z,99852.03
2023-05-19T17:46:34.600Z,99859.69
2023-05-19T17:51:38.002Z,99862.81
2023-05-19T17:56:42.519Z,99868.41
2023-05-19T18:01:46.907Z,99886.03
2023-05-19T18:06:52.431Z,99880.19
2023-05-19T18:11:55.358Z,99875.19
2023-05-19T18:16:59.436Z,99873.50
2023-05-19T18:22:02.165Z,99878.06
2023-05-19T18:27:05.110Z,99890.06
2023-05-19T18:32:09.431Z,99888.59
2023-05-19T18:37:12.140Z,99880.25
2023-05-19T18:42:14.825Z,99879.22
2023-05-19T18:47:19.663Z,99879.22
2023-05-19T18:52:22.410Z,99891.47
2023-05-19T18:57:25.107Z,99892.50
2023-05-19T19:02:29.144Z,99898.75
2023-05-19T19:07:31.832Z,99907.97
2023-05-19T19:12:34.726Z,99915.44
2023-05-19T19:17:39.800Z,99917.16
2023-05-19T19:22:42.607Z,99919.03
2023-05-19T19:27:45.399Z,99927.16
2023-05-19T19:32:49.506Z,99930.94
2023-05-19T19:37:52.596Z,99930.78
2023-05-19T19:42:55.236Z,99938.00
2023-05-19T19:47:59.357Z,99940.53
2023-05-19T19:53:02.126Z,99954.91
2023-05-19T19:58:04.774Z,99953.06
2023-05-19T20:03:08.921Z,99956.78
2023-05-19T20:13:14.520Z,99949.97
2023-05-19T20:18:18.595Z,99959.53
2023-05-19T20:23:21.275Z,99962.03
2023-05-19T20:28:24.122Z,99962.66
2023-05-19T20:33:28.380Z,99966.84
2023-05-19T20:38:31.074Z,99973.50
2023-05-19T20:43:33.886Z,99971.66
2023-05-19T20:48:37.940Z,99969.75
2023-05-19T20:53:40.776Z,99970.81
2023-05-19T20:58:43.439Z,99973.47
2023-05-19T21:03:47.463Z,99969.97
2023-05-19T21:08:50.146Z,99974.72
2023-05-19T21:13:54.147Z,99985.13
2023-05-19T21:18:58.303Z,99991.34
2023-05-19T21:24:01.352Z,99990.09
2023-05-19T21:29:03.981Z,99991.34
2023-05-19T21:34:08.171Z,99993.00
2023-05-19T21:39:10.847Z,99986.16
2023-05-19T21:44:13.467Z,99991.97
2023-05-19T21:49:17.541Z,99991.34
2023-05-19T21:54:20.201Z,99989.06
2023-05-19T21:59:24.621Z,99989.50
2023-05-19T22:04:31.329Z,99987.41
2023-05-19T22:09:34.024Z,99974.94
2023-05-19T22:14:36.814Z,99982.00
2023-05-19T22:19:40.877Z,99990.06
2023-05-19T22:24:43.518Z,99989.66
2023-05-19T22:29:46.211Z,99976.81
2023-05-19T22:34:50.410Z,99985.94
2023-05-19T22:39:53.049Z,99986.53
2023-05-19T22:44:55.716Z,99988.41
2023-05-19T22:50:00.056Z,99986.13
2023-05-19T22:55:02.791Z,99989.22
2023-05-19T23:00:06.606Z,99985.28
2023-05-19T23:05:11.258Z,99984.00
2023-05-19T23:10:14.185Z,99975.53
2023-05-19T23:15:16.907Z,99970.50
2023-05-19T23:20:21.184Z,99969.06
2023-05-19T23:25:23.854Z,99973.00
2023-05-19T23:30:26.531Z,99968.84
2023-05-19T23:35:30.612Z,99965.69
2023-05-19T23:40:33.291Z,99964.88
2023-05-19T23:45:35.924Z,99960.94
2023-05-19T23:50:39.914Z,99948.91
2023-05-19T23:55:43.271Z,99955.53
